Wilson Cadiz — 8PSY — position and weather

sailwx.info

Track history (hours):
 
Tides and Currents Weather Stations Pressure Air Temp Water Temp Dewpoint Dewpoint Depression Visibility Wind Speed Wind Dir Waves Ship Positions

Wilson Cadiz

Last reported at 2014-Oct-23 12:31 UTC. Time now 2014-Oct-24 12:55 UTC.
Position N 66°14' E 012°35'.

Length 100 m; draft 5.4 m.

Type: Ship. MMSI: 314216000.

Date/timePositionNaut miles runAvg speedWind from/ knotsBaromVisibWave heightAir tempDewpointWater temp
2014-Oct-23 12:31N 66°14' E 012°35'7 6.8
2014-Oct-23 11:33N 66°17' E 012°20'10 9.2
2014-Oct-23 10:31N 66°15' E 011°57'47410.0
2014-Oct-21 11:17N 59°03' E 004°55'911.8
2014-Oct-21 10:33N 58°55' E 005°04'1310.7
2014-Oct-21 09:21N 58°45' E 005°18'1010.1
2014-Oct-21 08:22N 58°36' E 005°29'810.0
2014-Oct-21 07:33N 58°30' E 005°38'10 9.9
2014-Oct-21 06:33N 58°23' E 005°51'10 9.8
2014-Oct-21 05:33N 58°16' E 006°05'1010.1
2014-Oct-21 04:33N 58°10' E 006°20'126 6.6
2014-Oct-20 09:29N 57°55' E 010°15'4 4.8
2014-Oct-20 08:33N 57°52' E 010°22'5 4.9
2014-Oct-20 07:33N 57°50' E 010°31'6 5.9
2014-Oct-20 06:33N 57°49' E 010°41'6 6.5
2014-Oct-20 05:33N 57°46' E 010°52'8 8.3
2014-Oct-20 04:33N 57°40' E 011°03'10 9.6
2014-Oct-20 03:33N 57°33' E 011°16'10 9.9
2014-Oct-20 02:33N 57°26' E 011°28'1110.8
2014-Oct-20 01:33N 57°16' E 011°35'1311.0
2014-Oct-20 00:23N 57°04' E 011°43'1211.1
2014-Oct-19 23:16N 56°52' E 011°50'811.0
2014-Oct-19 22:33N 56°44' E 011°55'1110.7
2014-Oct-19 21:32N 56°34' E 011°59'1010.4
2014-Oct-19 20:33N 56°24' E 012°03'1010.0
2014-Oct-19 19:33N 56°15' E 012°12'10 9.9
2014-Oct-19 18:33N 56°10' E 012°27'9 9.2
2014-Oct-19 17:33N 56°04' E 012°39'10 9.5
2014-Oct-19 16:33N 55°55' E 012°44'1010.1
2014-Oct-19 15:33N 55°45' E 012°41'9 8.8
2014-Oct-19 14:33N 55°36' E 012°42'10 9.5
2014-Oct-19 13:33N 55°26' E 012°42'9 9.2
2014-Oct-19 12:33N 55°17' E 012°46'1010.2
2014-Oct-19 11:33N 55°14' E 013°03'1510.5
2014-Oct-19 10:08N 55°07' E 013°26'1910.0
2014-Oct-19 08:15N 55°00' E 013°57'7 9.7
2014-Oct-19 07:33N 54°58' E 014°08'10 9.9
2014-Oct-19 06:33N 54°55' E 014°25'10 9.7
2014-Oct-19 05:34N 54°53' E 014°41'9 9.1
2014-Oct-19 04:33N 54°52' E 014°57'9 9.1
2014-Oct-19 03:33N 54°51' E 015°13'12 9.6
2014-Oct-19 02:16N 54°50' E 015°34'9110.5
2014-Oct-18 17:33N 54°56' E 018°13'1111.2
2014-Oct-18 16:33N 54°55' E 018°32'1110.6
2014-Oct-18 15:33N 54°54' E 018°50'1110.9
2014-Oct-18 14:33N 54°50' E 019°08'1111.1
2014-Oct-18 13:33N 54°46' E 019°26'1110.9
2014-Oct-18 12:33N 54°42' E 019°44'10 9.0
2014-Oct-18 11:24N 54°38' E 020°00'7 7.7
2014-Oct-18 10:33N 54°41' E 020°11'8 7.4
2014-Oct-18 09:30N 54°41' E 020°24'3 2.6
2014-Oct-18 08:24N 54°42' E 020°29'0 0.0
2014-Oct-18 04:21N 54°42' E 020°29'0 0.0
2014-Oct-18 03:06N 54°42' E 020°29'0 0.0
2014-Oct-18 02:27N 54°42' E 020°29'20 0.6
2014-Oct-16 16:17N 54°38' E 019°55'5 6.9
2014-Oct-16 15:33N 54°40' E 019°47'7 6.8
2014-Oct-16 14:33N 54°44' E 019°37'1211.6
2014-Oct-16 13:33N 54°48' E 019°19'1211.6
2014-Oct-16 12:33N 54°52' E 018°60'1211.6
2014-Oct-16 11:33N 54°56' E 018°41'1111.4
2014-Oct-16 10:33N 54°56' E 018°21'1211.7
2014-Oct-16 09:33N 54°56' E 018°01'1211.5
2014-Oct-16 08:32N 54°54' E 017°40'8610.8
2014-Oct-16 00:33N 54°50' E 015°10'1110.9
2014-Oct-15 23:33N 54°52' E 014°52'1111.0
2014-Oct-15 22:33N 54°54' E 014°33'1110.8
2014-Oct-15 21:31N 54°56' E 014°14'4410.1
2014-Oct-15 17:09N 55°12' E 013°02'610.0
2014-Oct-15 16:33N 55°14' E 012°52'10 9.9
2014-Oct-15 15:33N 55°19' E 012°37'10 9.8
2014-Oct-15 14:33N 55°26' E 012°24'7 6.9
2014-Oct-15 13:30N 55°27' E 012°12'0 0.0
2014-Oct-15 12:33N 55°27' E 012°12'0 0.0
2014-Oct-15 11:24N 55°27' E 012°12'0 0.0
2014-Oct-15 10:33N 55°27' E 012°12'0 0.0
2014-Oct-15 09:33N 55°27' E 012°12'0 0.0
2014-Oct-15 08:27N 55°27' E 012°12'0 0.0
2014-Oct-15 07:33N 55°27' E 012°12'0 0.0
2014-Oct-15 06:30N 55°27' E 012°12'0 0.0
2014-Oct-15 05:30N 55°27' E 012°12'0 0.0
2014-Oct-15 04:30N 55°27' E 012°12'0 0.0
2014-Oct-15 03:33N 55°27' E 012°12'0 0.0
2014-Oct-15 02:33N 55°27' E 012°12'0 0.0
2014-Oct-15 01:33N 55°27' E 012°12'0 0.0
2014-Oct-15 00:30N 55°27' E 012°12'0 0.0
2014-Oct-14 23:33N 55°27' E 012°12'0 0.0
2014-Oct-14 22:30N 55°27' E 012°12'0 0.0
2014-Oct-14 21:30N 55°27' E 012°12'0 0.0
2014-Oct-14 20:33N 55°27' E 012°12'0 0.0
2014-Oct-14 19:33N 55°27' E 012°12'0 0.0
2014-Oct-14 18:30N 55°27' E 012°12'0 0.0
2014-Oct-14 17:33N 55°27' E 012°12'0 0.0
2014-Oct-14 16:33N 55°27' E 012°12'0 0.0
2014-Oct-14 15:30N 55°27' E 012°12'0 0.0
2014-Oct-14 14:33N 55°27' E 012°12'0 0.0
2014-Oct-14 13:33N 55°27' E 012°12'0 0.0
2014-Oct-14 12:27N 55°27' E 012°12'0 0.0
2014-Oct-14 11:30N 55°27' E 012°12'0 0.0
2014-Oct-14 10:30N 55°27' E 012°12'0 0.0
2014-Oct-14 09:30N 55°27' E 012°12'0 0.0
2014-Oct-14 08:33N 55°27' E 012°12'1 0.5
2014-Oct-14 07:32N 55°27' E 012°13'7 7.2
2014-Oct-14 06:33N 55°29' E 012°25'1010.2
2014-Oct-14 05:34N 55°32' E 012°42'1110.8
2014-Oct-14 04:34N 55°43' E 012°41'1010.4
2014-Oct-14 03:33N 55°53' E 012°39'1010.2
2014-Oct-14 02:34N 56°03' E 012°38'1010.1
2014-Oct-14 01:33N 56°10' E 012°24'10 9.8
2014-Oct-14 00:33N 56°15' E 012°09'75 9.3
2014-Oct-13 16:33N 56°59' E 010°19'6 6.0
2014-Oct-13 15:34N 57°01' E 010°09'4 3.8
2014-Oct-13 14:32N 57°03' E 010°03'0 0.0
2014-Oct-13 13:32N 57°03' E 010°03'  
Track history (hours):
 
Tides and Currents Weather Stations Pressure Air Temp Water Temp Dewpoint Dewpoint Depression Visibility Wind Speed Wind Dir Waves Ship Positions

Wilson Cadiz

Last reported at 2014-Oct-23 12:31 UTC. Time now 2014-Oct-24 12:55 UTC.
Position N 66°14' E 012°35'.

Length 100 m; draft 5.4 m.

Type: Ship. MMSI: 314216000.

Date/timePositionNaut miles runAvg speedWind from/ knotsBaromVisibWave heightAir tempDewpointWater temp
2014-Oct-23 12:31N 66°14' E 012°35'7 6.8
2014-Oct-23 11:33N 66°17' E 012°20'10 9.2
2014-Oct-23 10:31N 66°15' E 011°57'47410.0
2014-Oct-21 11:17N 59°03' E 004°55'911.8
2014-Oct-21 10:33N 58°55' E 005°04'1310.7
2014-Oct-21 09:21N 58°45' E 005°18'1010.1
2014-Oct-21 08:22N 58°36' E 005°29'810.0
2014-Oct-21 07:33N 58°30' E 005°38'10 9.9
2014-Oct-21 06:33N 58°23' E 005°51'10 9.8
2014-Oct-21 05:33N 58°16' E 006°05'1010.1
2014-Oct-21 04:33N 58°10' E 006°20'126 6.6
2014-Oct-20 09:29N 57°55' E 010°15'4 4.8
2014-Oct-20 08:33N 57°52' E 010°22'5 4.9
2014-Oct-20 07:33N 57°50' E 010°31'6 5.9
2014-Oct-20 06:33N 57°49' E 010°41'6 6.5
2014-Oct-20 05:33N 57°46' E 010°52'8 8.3
2014-Oct-20 04:33N 57°40' E 011°03'10 9.6
2014-Oct-20 03:33N 57°33' E 011°16'10 9.9
2014-Oct-20 02:33N 57°26' E 011°28'1110.8
2014-Oct-20 01:33N 57°16' E 011°35'1311.0
2014-Oct-20 00:23N 57°04' E 011°43'1211.1
2014-Oct-19 23:16N 56°52' E 011°50'811.0
2014-Oct-19 22:33N 56°44' E 011°55'1110.7
2014-Oct-19 21:32N 56°34' E 011°59'1010.4
2014-Oct-19 20:33N 56°24' E 012°03'1010.0
2014-Oct-19 19:33N 56°15' E 012°12'10 9.9
2014-Oct-19 18:33N 56°10' E 012°27'9 9.2
2014-Oct-19 17:33N 56°04' E 012°39'10 9.5
2014-Oct-19 16:33N 55°55' E 012°44'1010.1
2014-Oct-19 15:33N 55°45' E 012°41'9 8.8
2014-Oct-19 14:33N 55°36' E 012°42'10 9.5
2014-Oct-19 13:33N 55°26' E 012°42'9 9.2
2014-Oct-19 12:33N 55°17' E 012°46'1010.2
2014-Oct-19 11:33N 55°14' E 013°03'1510.5
2014-Oct-19 10:08N 55°07' E 013°26'1910.0
2014-Oct-19 08:15N 55°00' E 013°57'7 9.7
2014-Oct-19 07:33N 54°58' E 014°08'10 9.9
2014-Oct-19 06:33N 54°55' E 014°25'10 9.7
2014-Oct-19 05:34N 54°53' E 014°41'9 9.1
2014-Oct-19 04:33N 54°52' E 014°57'9 9.1
2014-Oct-19 03:33N 54°51' E 015°13'12 9.6
2014-Oct-19 02:16N 54°50' E 015°34'9110.5
2014-Oct-18 17:33N 54°56' E 018°13'1111.2
2014-Oct-18 16:33N 54°55' E 018°32'1110.6
2014-Oct-18 15:33N 54°54' E 018°50'1110.9
2014-Oct-18 14:33N 54°50' E 019°08'1111.1
2014-Oct-18 13:33N 54°46' E 019°26'1110.9
2014-Oct-18 12:33N 54°42' E 019°44'10 9.0
2014-Oct-18 11:24N 54°38' E 020°00'7 7.7
2014-Oct-18 10:33N 54°41' E 020°11'8 7.4
2014-Oct-18 09:30N 54°41' E 020°24'3 2.6
2014-Oct-18 08:24N 54°42' E 020°29'0 0.0
2014-Oct-18 04:21N 54°42' E 020°29'0 0.0
2014-Oct-18 03:06N 54°42' E 020°29'0 0.0
2014-Oct-18 02:27N 54°42' E 020°29'20 0.6
2014-Oct-16 16:17N 54°38' E 019°55'5 6.9
2014-Oct-16 15:33N 54°40' E 019°47'7 6.8
2014-Oct-16 14:33N 54°44' E 019°37'1211.6
2014-Oct-16 13:33N 54°48' E 019°19'1211.6
2014-Oct-16 12:33N 54°52' E 018°60'1211.6
2014-Oct-16 11:33N 54°56' E 018°41'1111.4
2014-Oct-16 10:33N 54°56' E 018°21'1211.7
2014-Oct-16 09:33N 54°56' E 018°01'1211.5
2014-Oct-16 08:32N 54°54' E 017°40'8610.8
2014-Oct-16 00:33N 54°50' E 015°10'1110.9
2014-Oct-15 23:33N 54°52' E 014°52'1111.0
2014-Oct-15 22:33N 54°54' E 014°33'1110.8
2014-Oct-15 21:31N 54°56' E 014°14'4410.1
2014-Oct-15 17:09N 55°12' E 013°02'610.0
2014-Oct-15 16:33N 55°14' E 012°52'10 9.9
2014-Oct-15 15:33N 55°19' E 012°37'10 9.8
2014-Oct-15 14:33N 55°26' E 012°24'7 6.9
2014-Oct-15 13:30N 55°27' E 012°12'0 0.0
2014-Oct-15 12:33N 55°27' E 012°12'0 0.0
2014-Oct-15 11:24N 55°27' E 012°12'0 0.0
2014-Oct-15 10:33N 55°27' E 012°12'0 0.0
2014-Oct-15 09:33N 55°27' E 012°12'0 0.0
2014-Oct-15 08:27N 55°27' E 012°12'0 0.0
2014-Oct-15 07:33N 55°27' E 012°12'0 0.0
2014-Oct-15 06:30N 55°27' E 012°12'0 0.0
2014-Oct-15 05:30N 55°27' E 012°12'0 0.0
2014-Oct-15 04:30N 55°27' E 012°12'0 0.0
2014-Oct-15 03:33N 55°27' E 012°12'0 0.0
2014-Oct-15 02:33N 55°27' E 012°12'0 0.0
2014-Oct-15 01:33N 55°27' E 012°12'0 0.0
2014-Oct-15 00:30N 55°27' E 012°12'0 0.0
2014-Oct-14 23:33N 55°27' E 012°12'0 0.0
2014-Oct-14 22:30N 55°27' E 012°12'0 0.0
2014-Oct-14 21:30N 55°27' E 012°12'0 0.0
2014-Oct-14 20:33N 55°27' E 012°12'0 0.0
2014-Oct-14 19:33N 55°27' E 012°12'0 0.0
2014-Oct-14 18:30N 55°27' E 012°12'0 0.0
2014-Oct-14 17:33N 55°27' E 012°12'0 0.0
2014-Oct-14 16:33N 55°27' E 012°12'0 0.0
2014-Oct-14 15:30N 55°27' E 012°12'0 0.0
2014-Oct-14 14:33N 55°27' E 012°12'0 0.0
2014-Oct-14 13:33N 55°27' E 012°12'0 0.0
2014-Oct-14 12:27N 55°27' E 012°12'0 0.0
2014-Oct-14 11:30N 55°27' E 012°12'0 0.0
2014-Oct-14 10:30N 55°27' E 012°12'0 0.0
2014-Oct-14 09:30N 55°27' E 012°12'0 0.0
2014-Oct-14 08:33N 55°27' E 012°12'1 0.5
2014-Oct-14 07:32N 55°27' E 012°13'7 7.2
2014-Oct-14 06:33N 55°29' E 012°25'1010.2
2014-Oct-14 05:34N 55°32' E 012°42'1110.8
2014-Oct-14 04:34N 55°43' E 012°41'1010.4
2014-Oct-14 03:33N 55°53' E 012°39'1010.2
2014-Oct-14 02:34N 56°03' E 012°38'1010.1
2014-Oct-14 01:33N 56°10' E 012°24'10 9.8
2014-Oct-14 00:33N 56°15' E 012°09'75 9.3
2014-Oct-13 16:33N 56°59' E 010°19'6 6.0
2014-Oct-13 15:34N 57°01' E 010°09'4 3.8
2014-Oct-13 14:32N 57°03' E 010°03'0 0.0
2014-Oct-13 13:32N 57°03' E 010°03'  

Dump ship's entire track history